sensor_id;sensor_type;location;lat;lon;timestamp;P1;durP1;ratioP1;P2;durP2;ratioP2
49464;SDS011;35358;49.342;8.802;2022-09-23T00:00:43;3.35;;;2.00;;
49464;SDS011;35358;49.342;8.802;2022-09-23T00:03:10;2.45;;;2.08;;
49464;SDS011;35358;49.342;8.802;2022-09-23T00:05:36;5.28;;;2.38;;
49464;SDS011;35358;49.342;8.802;2022-09-23T00:08:03;3.08;;;2.05;;
49464;SDS011;35358;49.342;8.802;2022-09-23T00:10:29;1.95;;;1.67;;
49464;SDS011;35358;49.342;8.802;2022-09-23T00:12:57;2.60;;;1.88;;
49464;SDS011;35358;49.342;8.802;2022-09-23T00:15:24;8.88;;;2.40;;
49464;SDS011;35358;49.342;8.802;2022-09-23T00:17:51;3.58;;;2.10;;
49464;SDS011;35358;49.342;8.802;2022-09-23T00:20:17;4.72;;;2.00;;
49464;SDS011;35358;49.342;8.802;2022-09-23T00:22:43;4.70;;;2.28;;
49464;SDS011;35358;49.342;8.802;2022-09-23T00:25:09;4.53;;;2.00;;
49464;SDS011;35358;49.342;8.802;2022-09-23T00:27:35;4.45;;;2.42;;
49464;SDS011;35358;49.342;8.802;2022-09-23T00:30:03;5.15;;;2.30;;
49464;SDS011;35358;49.342;8.802;2022-09-23T00:32:33;5.05;;;2.13;;
49464;SDS011;35358;49.342;8.802;2022-09-23T00:34:59;2.55;;;2.10;;
49464;SDS011;35358;49.342;8.802;2022-09-23T00:37:26;2.40;;;1.73;;
49464;SDS011;35358;49.342;8.802;2022-09-23T00:42:24;2.95;;;1.88;;
49464;SDS011;35358;49.342;8.802;2022-09-23T00:44:54;2.40;;;2.13;;
49464;SDS011;35358;49.342;8.802;2022-09-23T00:50:29;2.60;;;2.03;;
49464;SDS011;35358;49.342;8.802;2022-09-23T00:52:58;3.25;;;2.03;;
49464;SDS011;35358;49.342;8.802;2022-09-23T00:55:27;2.42;;;2.00;;
49464;SDS011;35358;49.342;8.802;2022-09-23T00:57:59;2.10;;;1.88;;
49464;SDS011;35358;49.342;8.802;2022-09-23T01:00:30;4.97;;;2.10;;
49464;SDS011;35358;49.342;8.802;2022-09-23T01:02:56;3.20;;;1.80;;
49464;SDS011;35358;49.342;8.802;2022-09-23T01:05:24;4.50;;;2.13;;
49464;SDS011;35358;49.342;8.802;2022-09-23T01:07:50;3.63;;;1.85;;
49464;SDS011;35358;49.342;8.802;2022-09-23T01:10:17;3.70;;;1.88;;
49464;SDS011;35358;49.342;8.802;2022-09-23T01:23:42;3.33;;;2.03;;
49464;SDS011;35358;49.342;8.802;2022-09-23T01:31:51;2.70;;;1.90;;
49464;SDS011;35358;49.342;8.802;2022-09-23T01:37:32;2.30;;;2.08;;
49464;SDS011;35358;49.342;8.802;2022-09-23T01:40:34;4.45;;;1.92;;
49464;SDS011;35358;49.342;8.802;2022-09-23T01:43:18;5.20;;;2.20;;
49464;SDS011;35358;49.342;8.802;2022-09-23T01:45:49;2.33;;;2.00;;
49464;SDS011;35358;49.342;8.802;2022-09-23T01:48:34;10.77;;;1.85;;
49464;SDS011;35358;49.342;8.802;2022-09-23T01:53:32;2.83;;;2.42;;
49464;SDS011;35358;49.342;8.802;2022-09-23T01:56:11;2.78;;;2.20;;
49464;SDS011;35358;49.342;8.802;2022-09-23T01:58:55;2.33;;;1.88;;
49464;SDS011;35358;49.342;8.802;2022-09-23T02:01:34;7.13;;;2.20;;
49464;SDS011;35358;49.342;8.802;2022-09-23T02:04:05;7.57;;;2.65;;
49464;SDS011;35358;49.342;8.802;2022-09-23T02:06:42;3.90;;;2.17;;
49464;SDS011;35358;49.342;8.802;2022-09-23T02:09:17;2.95;;;1.67;;
49464;SDS011;35358;49.342;8.802;2022-09-23T02:11:55;2.60;;;1.60;;
49464;SDS011;35358;49.342;8.802;2022-09-23T02:14:40;2.50;;;1.92;;
49464;SDS011;35358;49.342;8.802;2022-09-23T02:17:25;2.00;;;1.73;;
49464;SDS011;35358;49.342;8.802;2022-09-23T02:20:03;4.03;;;2.30;;
49464;SDS011;35358;49.342;8.802;2022-09-23T02:22:35;2.85;;;2.00;;
49464;SDS011;35358;49.342;8.802;2022-09-23T02:25:07;4.07;;;2.33;;
49464;SDS011;35358;49.342;8.802;2022-09-23T02:28:38;3.65;;;2.00;;
49464;SDS011;35358;49.342;8.802;2022-09-23T02:30:31;3.80;;;1.90;;
49464;SDS011;35358;49.342;8.802;2022-09-23T02:33:22;2.85;;;2.08;;
49464;SDS011;35358;49.342;8.802;2022-09-23T02:35:53;2.92;;;1.88;;
49464;SDS011;35358;49.342;8.802;2022-09-23T02:38:42;3.22;;;2.28;;
49464;SDS011;35358;49.342;8.802;2022-09-23T02:46:23;2.55;;;2.00;;
49464;SDS011;35358;49.342;8.802;2022-09-23T02:49:04;5.32;;;2.17;;
49464;SDS011;35358;49.342;8.802;2022-09-23T02:51:35;3.55;;;1.92;;
49464;SDS011;35358;49.342;8.802;2022-09-23T02:54:03;2.03;;;1.70;;
49464;SDS011;35358;49.342;8.802;2022-09-23T02:56:31;3.47;;;2.05;;
49464;SDS011;35358;49.342;8.802;2022-09-23T02:58:57;2.88;;;1.85;;
49464;SDS011;35358;49.342;8.802;2022-09-23T03:09:25;2.63;;;2.13;;
49464;SDS011;35358;49.342;8.802;2022-09-23T03:17:37;5.38;;;2.15;;
49464;SDS011;35358;49.342;8.802;2022-09-23T03:20:23;4.20;;;2.30;;
49464;SDS011;35358;49.342;8.802;2022-09-23T03:23:00;7.03;;;2.45;;
49464;SDS011;35358;49.342;8.802;2022-09-23T03:25:33;2.42;;;2.13;;
49464;SDS011;35358;49.342;8.802;2022-09-23T03:28:05;2.60;;;2.15;;
49464;SDS011;35358;49.342;8.802;2022-09-23T03:30:35;3.10;;;2.00;;
49464;SDS011;35358;49.342;8.802;2022-09-23T03:33:05;2.45;;;2.03;;
49464;SDS011;35358;49.342;8.802;2022-09-23T03:35:40;3.85;;;1.95;;
49464;SDS011;35358;49.342;8.802;2022-09-23T03:38:33;2.25;;;2.05;;
49464;SDS011;35358;49.342;8.802;2022-09-23T03:41:03;2.55;;;1.90;;
49464;SDS011;35358;49.342;8.802;2022-09-23T03:43:33;2.67;;;2.13;;
49464;SDS011;35358;49.342;8.802;2022-09-23T03:46:01;3.10;;;2.22;;
49464;SDS011;35358;49.342;8.802;2022-09-23T03:50:56;3.70;;;2.53;;
49464;SDS011;35358;49.342;8.802;2022-09-23T03:53:26;3.20;;;2.50;;
49464;SDS011;35358;49.342;8.802;2022-09-23T03:55:52;3.60;;;2.58;;
49464;SDS011;35358;49.342;8.802;2022-09-23T03:58:20;5.30;;;2.55;;
49464;SDS011;35358;49.342;8.802;2022-09-23T04:00:46;3.50;;;2.85;;
49464;SDS011;35358;49.342;8.802;2022-09-23T04:03:16;4.90;;;2.88;;
49464;SDS011;35358;49.342;8.802;2022-09-23T04:05:43;5.05;;;2.42;;
49464;SDS011;35358;49.342;8.802;2022-09-23T04:08:11;2.95;;;2.63;;
49464;SDS011;35358;49.342;8.802;2022-09-23T04:10:39;3.83;;;2.70;;
49464;SDS011;35358;49.342;8.802;2022-09-23T04:13:07;4.10;;;2.60;;
49464;SDS011;35358;49.342;8.802;2022-09-23T04:15:36;12.80;;;3.20;;
49464;SDS011;35358;49.342;8.802;2022-09-23T04:18:01;2.83;;;2.40;;
49464;SDS011;35358;49.342;8.802;2022-09-23T04:20:27;4.13;;;2.63;;
49464;SDS011;35358;49.342;8.802;2022-09-23T04:22:56;3.95;;;2.67;;
49464;SDS011;35358;49.342;8.802;2022-09-23T04:25:22;3.75;;;2.00;;
49464;SDS011;35358;49.342;8.802;2022-09-23T04:27:52;2.95;;;2.30;;
49464;SDS011;35358;49.342;8.802;2022-09-23T04:30:19;3.42;;;2.15;;
49464;SDS011;35358;49.342;8.802;2022-09-23T04:32:45;4.90;;;2.60;;
49464;SDS011;35358;49.342;8.802;2022-09-23T04:35:13;3.03;;;2.30;;
49464;SDS011;35358;49.342;8.802;2022-09-23T04:37:38;2.90;;;2.53;;
49464;SDS011;35358;49.342;8.802;2022-09-23T04:40:10;2.60;;;2.30;;
49464;SDS011;35358;49.342;8.802;2022-09-23T04:42:35;3.70;;;2.10;;
49464;SDS011;35358;49.342;8.802;2022-09-23T04:45:06;4.90;;;2.20;;
49464;SDS011;35358;49.342;8.802;2022-09-23T04:47:32;3.20;;;2.42;;
49464;SDS011;35358;49.342;8.802;2022-09-23T04:49:57;2.95;;;2.42;;
49464;SDS011;35358;49.342;8.802;2022-09-23T04:52:23;3.17;;;2.13;;
49464;SDS011;35358;49.342;8.802;2022-09-23T04:54:49;11.80;;;8.15;;
49464;SDS011;35358;49.342;8.802;2022-09-23T04:57:14;9.23;;;5.30;;
49464;SDS011;35358;49.342;8.802;2022-09-23T04:59:40;8.32;;;5.38;;
49464;SDS011;35358;49.342;8.802;2022-09-23T05:02:08;9.18;;;6.05;;
49464;SDS011;35358;49.342;8.802;2022-09-23T05:04:35;9.23;;;7.28;;
49464;SDS011;35358;49.342;8.802;2022-09-23T05:07:01;10.27;;;7.45;;
49464;SDS011;35358;49.342;8.802;2022-09-23T05:09:30;9.27;;;7.05;;
49464;SDS011;35358;49.342;8.802;2022-09-23T05:11:56;8.75;;;6.35;;
49464;SDS011;35358;49.342;8.802;2022-09-23T05:14:21;6.00;;;4.80;;
49464;SDS011;35358;49.342;8.802;2022-09-23T05:16:47;4.78;;;4.28;;
49464;SDS011;35358;49.342;8.802;2022-09-23T05:19:12;3.38;;;3.08;;
49464;SDS011;35358;49.342;8.802;2022-09-23T05:21:38;5.22;;;4.20;;
49464;SDS011;35358;49.342;8.802;2022-09-23T05:24:04;5.88;;;3.80;;
49464;SDS011;35358;49.342;8.802;2022-09-23T05:26:32;5.07;;;3.75;;
49464;SDS011;35358;49.342;8.802;2022-09-23T05:28:58;4.85;;;3.53;;
49464;SDS011;35358;49.342;8.802;2022-09-23T05:31:25;4.18;;;3.13;;
49464;SDS011;35358;49.342;8.802;2022-09-23T05:33:58;3.85;;;2.90;;
49464;SDS011;35358;49.342;8.802;2022-09-23T05:36:25;5.35;;;2.60;;
49464;SDS011;35358;49.342;8.802;2022-09-23T05:38:52;3.15;;;2.85;;
49464;SDS011;35358;49.342;8.802;2022-09-23T05:41:20;6.07;;;2.97;;
49464;SDS011;35358;49.342;8.802;2022-09-23T05:43:50;4.88;;;2.78;;
49464;SDS011;35358;49.342;8.802;2022-09-23T05:48:49;4.85;;;3.38;;
49464;SDS011;35358;49.342;8.802;2022-09-23T05:51:16;5.20;;;3.05;;
49464;SDS011;35358;49.342;8.802;2022-09-23T05:53:49;9.02;;;3.30;;
49464;SDS011;35358;49.342;8.802;2022-09-23T05:56:19;3.05;;;2.28;;
49464;SDS011;35358;49.342;8.802;2022-09-23T05:58:48;6.65;;;3.17;;
49464;SDS011;35358;49.342;8.802;2022-09-23T06:01:15;4.20;;;2.80;;
49464;SDS011;35358;49.342;8.802;2022-09-23T06:03:46;4.18;;;3.15;;
49464;SDS011;35358;49.342;8.802;2022-09-23T06:06:12;4.78;;;2.95;;
49464;SDS011;35358;49.342;8.802;2022-09-23T06:08:42;3.78;;;2.78;;
49464;SDS011;35358;49.342;8.802;2022-09-23T06:11:08;7.47;;;2.92;;
49464;SDS011;35358;49.342;8.802;2022-09-23T06:13:36;4.00;;;2.67;;
49464;SDS011;35358;49.342;8.802;2022-09-23T06:16:06;2.78;;;2.53;;
49464;SDS011;35358;49.342;8.802;2022-09-23T06:18:34;4.32;;;2.50;;
49464;SDS011;35358;49.342;8.802;2022-09-23T06:21:02;3.72;;;2.40;;
49464;SDS011;35358;49.342;8.802;2022-09-23T06:23:28;5.47;;;2.78;;
49464;SDS011;35358;49.342;8.802;2022-09-23T06:26:00;3.57;;;2.60;;
49464;SDS011;35358;49.342;8.802;2022-09-23T06:28:28;5.28;;;2.38;;
49464;SDS011;35358;49.342;8.802;2022-09-23T06:30:58;2.55;;;2.17;;
49464;SDS011;35358;49.342;8.802;2022-09-23T06:33:27;4.03;;;2.60;;
49464;SDS011;35358;49.342;8.802;2022-09-23T06:35:54;3.15;;;2.60;;
49464;SDS011;35358;49.342;8.802;2022-09-23T06:38:21;8.68;;;2.42;;
49464;SDS011;35358;49.342;8.802;2022-09-23T06:40:53;5.50;;;3.08;;
49464;SDS011;35358;49.342;8.802;2022-09-23T06:43:20;5.28;;;2.40;;
49464;SDS011;35358;49.342;8.802;2022-09-23T06:45:51;5.22;;;2.63;;
49464;SDS011;35358;49.342;8.802;2022-09-23T06:48:20;5.88;;;2.80;;
49464;SDS011;35358;49.342;8.802;2022-09-23T06:50:49;5.90;;;3.13;;
49464;SDS011;35358;49.342;8.802;2022-09-23T06:53:15;4.18;;;2.88;;
49464;SDS011;35358;49.342;8.802;2022-09-23T06:55:41;4.43;;;2.90;;
49464;SDS011;35358;49.342;8.802;2022-09-23T06:58:07;3.85;;;2.33;;
49464;SDS011;35358;49.342;8.802;2022-09-23T07:00:37;3.50;;;2.20;;
49464;SDS011;35358;49.342;8.802;2022-09-23T07:03:05;2.72;;;2.28;;
49464;SDS011;35358;49.342;8.802;2022-09-23T07:05:36;2.47;;;1.83;;
49464;SDS011;35358;49.342;8.802;2022-09-23T07:08:07;3.75;;;2.55;;
49464;SDS011;35358;49.342;8.802;2022-09-23T07:10:34;3.17;;;2.40;;
49464;SDS011;35358;49.342;8.802;2022-09-23T07:13:01;2.58;;;2.17;;
49464;SDS011;35358;49.342;8.802;2022-09-23T07:15:30;2.35;;;2.08;;
49464;SDS011;35358;49.342;8.802;2022-09-23T07:17:56;3.40;;;2.40;;
49464;SDS011;35358;49.342;8.802;2022-09-23T07:20:26;2.92;;;2.58;;
49464;SDS011;35358;49.342;8.802;2022-09-23T07:22:52;4.07;;;2.50;;
49464;SDS011;35358;49.342;8.802;2022-09-23T07:25:18;3.53;;;2.10;;
49464;SDS011;35358;49.342;8.802;2022-09-23T07:27:44;5.45;;;2.63;;
49464;SDS011;35358;49.342;8.802;2022-09-23T07:30:11;3.35;;;2.15;;
49464;SDS011;35358;49.342;8.802;2022-09-23T07:32:40;6.13;;;2.55;;
49464;SDS011;35358;49.342;8.802;2022-09-23T07:35:08;2.47;;;2.10;;
49464;SDS011;35358;49.342;8.802;2022-09-23T07:37:36;2.30;;;2.10;;
49464;SDS011;35358;49.342;8.802;2022-09-23T07:40:02;5.35;;;2.65;;
49464;SDS011;35358;49.342;8.802;2022-09-23T07:42:30;4.57;;;2.55;;
49464;SDS011;35358;49.342;8.802;2022-09-23T07:44:58;3.45;;;2.35;;
49464;SDS011;35358;49.342;8.802;2022-09-23T07:47:24;4.25;;;2.75;;
49464;SDS011;35358;49.342;8.802;2022-09-23T07:49:49;4.57;;;2.60;;
49464;SDS011;35358;49.342;8.802;2022-09-23T07:52:15;3.63;;;2.78;;
49464;SDS011;35358;49.342;8.802;2022-09-23T07:54:40;2.88;;;2.35;;
49464;SDS011;35358;49.342;8.802;2022-09-23T07:57:06;5.05;;;2.42;;
49464;SDS011;35358;49.342;8.802;2022-09-23T07:59:34;6.30;;;2.30;;
49464;SDS011;35358;49.342;8.802;2022-09-23T08:01:59;4.18;;;2.65;;
49464;SDS011;35358;49.342;8.802;2022-09-23T08:04:27;4.30;;;2.50;;
49464;SDS011;35358;49.342;8.802;2022-09-23T08:06:57;3.83;;;2.65;;
49464;SDS011;35358;49.342;8.802;2022-09-23T08:09:31;5.63;;;2.85;;
49464;SDS011;35358;49.342;8.802;2022-09-23T08:11:58;4.50;;;2.88;;
49464;SDS011;35358;49.342;8.802;2022-09-23T08:14:27;3.03;;;2.10;;
49464;SDS011;35358;49.342;8.802;2022-09-23T08:16:55;2.97;;;2.30;;
49464;SDS011;35358;49.342;8.802;2022-09-23T08:19:24;3.13;;;2.50;;
49464;SDS011;35358;49.342;8.802;2022-09-23T08:21:53;3.33;;;2.58;;
49464;SDS011;35358;49.342;8.802;2022-09-23T08:24:22;4.53;;;2.67;;
49464;SDS011;35358;49.342;8.802;2022-09-23T08:26:49;3.92;;;2.92;;
49464;SDS011;35358;49.342;8.802;2022-09-23T08:29:17;4.97;;;2.78;;
49464;SDS011;35358;49.342;8.802;2022-09-23T08:31:47;4.50;;;2.72;;
49464;SDS011;35358;49.342;8.802;2022-09-23T08:34:14;6.38;;;2.45;;
49464;SDS011;35358;49.342;8.802;2022-09-23T08:36:44;6.15;;;3.83;;
49464;SDS011;35358;49.342;8.802;2022-09-23T08:39:14;4.13;;;3.17;;
49464;SDS011;35358;49.342;8.802;2022-09-23T08:44:22;6.47;;;3.20;;
49464;SDS011;35358;49.342;8.802;2022-09-23T08:46:53;4.57;;;3.20;;
49464;SDS011;35358;49.342;8.802;2022-09-23T08:49:25;6.95;;;3.00;;
49464;SDS011;35358;49.342;8.802;2022-09-23T08:51:57;4.82;;;3.25;;
49464;SDS011;35358;49.342;8.802;2022-09-23T08:54:30;4.90;;;3.00;;
49464;SDS011;35358;49.342;8.802;2022-09-23T08:56:58;4.22;;;3.15;;
49464;SDS011;35358;49.342;8.802;2022-09-23T08:59:41;4.68;;;3.30;;
49464;SDS011;35358;49.342;8.802;2022-09-23T09:02:18;4.05;;;3.03;;
49464;SDS011;35358;49.342;8.802;2022-09-23T09:04:52;12.23;;;3.33;;
49464;SDS011;35358;49.342;8.802;2022-09-23T09:07:23;3.80;;;3.10;;
49464;SDS011;35358;49.342;8.802;2022-09-23T09:15:03;4.05;;;2.90;;
49464;SDS011;35358;49.342;8.802;2022-09-23T09:20:28;8.00;;;3.25;;
49464;SDS011;35358;49.342;8.802;2022-09-23T09:23:21;4.30;;;3.28;;
49464;SDS011;35358;49.342;8.802;2022-09-23T09:25:59;6.57;;;4.10;;
49464;SDS011;35358;49.342;8.802;2022-09-23T09:31:29;4.32;;;3.78;;
49464;SDS011;35358;49.342;8.802;2022-09-23T09:34:03;7.63;;;3.65;;
49464;SDS011;35358;49.342;8.802;2022-09-23T09:38:59;6.72;;;3.40;;
49464;SDS011;35358;49.342;8.802;2022-09-23T09:41:28;4.22;;;3.50;;
49464;SDS011;35358;49.342;8.802;2022-09-23T09:43:58;5.80;;;3.35;;
49464;SDS011;35358;49.342;8.802;2022-09-23T09:51:29;7.05;;;3.88;;
49464;SDS011;35358;49.342;8.802;2022-09-23T09:54:14;6.15;;;3.50;;
49464;SDS011;35358;49.342;8.802;2022-09-23T09:56:42;7.75;;;3.33;;
49464;SDS011;35358;49.342;8.802;2022-09-23T09:59:09;10.18;;;3.78;;
49464;SDS011;35358;49.342;8.802;2022-09-23T10:01:44;8.82;;;4.18;;
49464;SDS011;35358;49.342;8.802;2022-09-23T10:04:21;6.97;;;3.60;;
49464;SDS011;35358;49.342;8.802;2022-09-23T10:09:34;4.05;;;3.47;;
49464;SDS011;35358;49.342;8.802;2022-09-23T10:12:03;7.20;;;3.90;;
49464;SDS011;35358;49.342;8.802;2022-09-23T10:14:42;4.90;;;3.22;;
49464;SDS011;35358;49.342;8.802;2022-09-23T10:17:13;8.30;;;3.80;;
49464;SDS011;35358;49.342;8.802;2022-09-23T10:19:44;4.95;;;3.40;;
49464;SDS011;35358;49.342;8.802;2022-09-23T10:22:17;5.45;;;3.13;;
49464;SDS011;35358;49.342;8.802;2022-09-23T10:24:55;5.22;;;2.78;;
49464;SDS011;35358;49.342;8.802;2022-09-23T10:27:27;3.92;;;3.10;;
49464;SDS011;35358;49.342;8.802;2022-09-23T10:30:05;4.90;;;3.25;;
49464;SDS011;35358;49.342;8.802;2022-09-23T10:32:43;4.75;;;3.00;;
49464;SDS011;35358;49.342;8.802;2022-09-23T10:40:15;5.43;;;3.22;;
49464;SDS011;35358;49.342;8.802;2022-09-23T10:46:05;5.30;;;3.08;;
49464;SDS011;35358;49.342;8.802;2022-09-23T10:49:15;3.50;;;3.17;;
49464;SDS011;35358;49.342;8.802;2022-09-23T11:13:55;4.45;;;3.60;;
49464;SDS011;35358;49.342;8.802;2022-09-23T11:37:47;7.78;;;3.20;;
49464;SDS011;35358;49.342;8.802;2022-09-23T11:40:25;5.35;;;2.42;;
49464;SDS011;35358;49.342;8.802;2022-09-23T11:42:58;3.65;;;2.50;;
49464;SDS011;35358;49.342;8.802;2022-09-23T11:56:31;4.30;;;2.78;;
49464;SDS011;35358;49.342;8.802;2022-09-23T12:04:46;4.45;;;2.30;;
49464;SDS011;35358;49.342;8.802;2022-09-23T12:07:23;4.05;;;2.10;;
49464;SDS011;35358;49.342;8.802;2022-09-23T12:09:56;6.18;;;3.58;;
49464;SDS011;35358;49.342;8.802;2022-09-23T12:18:00;4.20;;;1.85;;
49464;SDS011;35358;49.342;8.802;2022-09-23T12:21:12;4.93;;;2.30;;
49464;SDS011;35358;49.342;8.802;2022-09-23T12:23:59;2.50;;;1.90;;
49464;SDS011;35358;49.342;8.802;2022-09-23T12:26:20;4.55;;;2.05;;
49464;SDS011;35358;49.342;8.802;2022-09-23T12:28:49;3.13;;;1.90;;
49464;SDS011;35358;49.342;8.802;2022-09-23T12:31:17;6.10;;;2.22;;
49464;SDS011;35358;49.342;8.802;2022-09-23T12:33:52;4.05;;;2.55;;
49464;SDS011;35358;49.342;8.802;2022-09-23T12:36:25;12.50;;;3.38;;
49464;SDS011;35358;49.342;8.802;2022-09-23T12:39:00;3.25;;;1.80;;
49464;SDS011;35358;49.342;8.802;2022-09-23T12:46:41;3.25;;;2.20;;
49464;SDS011;35358;49.342;8.802;2022-09-23T12:49:23;3.58;;;2.13;;
49464;SDS011;35358;49.342;8.802;2022-09-23T12:54:42;5.88;;;2.08;;
49464;SDS011;35358;49.342;8.802;2022-09-23T13:02:30;3.53;;;1.88;;
49464;SDS011;35358;49.342;8.802;2022-09-23T13:05:39;3.28;;;1.77;;
49464;SDS011;35358;49.342;8.802;2022-09-23T13:08:27;3.83;;;1.90;;
49464;SDS011;35358;49.342;8.802;2022-09-23T13:10:59;2.88;;;1.58;;
49464;SDS011;35358;49.342;8.802;2022-09-23T13:13:33;5.40;;;2.13;;
49464;SDS011;35358;49.342;8.802;2022-09-23T13:16:24;5.00;;;1.92;;
49464;SDS011;35358;49.342;8.802;2022-09-23T13:19:04;2.28;;;1.88;;
49464;SDS011;35358;49.342;8.802;2022-09-23T13:22:00;3.03;;;1.65;;
49464;SDS011;35358;49.342;8.802;2022-09-23T13:27:15;6.03;;;1.45;;
49464;SDS011;35358;49.342;8.802;2022-09-23T13:32:50;5.07;;;1.48;;
49464;SDS011;35358;49.342;8.802;2022-09-23T13:35:37;4.88;;;1.30;;
49464;SDS011;35358;49.342;8.802;2022-09-23T13:38:19;2.45;;;1.60;;
49464;SDS011;35358;49.342;8.802;2022-09-23T13:40:49;4.47;;;1.70;;
49464;SDS011;35358;49.342;8.802;2022-09-23T13:43:23;5.13;;;1.95;;
49464;SDS011;35358;49.342;8.802;2022-09-23T13:45:56;4.47;;;2.03;;
49464;SDS011;35358;49.342;8.802;2022-09-23T13:48:25;2.67;;;1.73;;
49464;SDS011;35358;49.342;8.802;2022-09-23T13:50:52;2.33;;;1.80;;
49464;SDS011;35358;49.342;8.802;2022-09-23T13:53:28;7.20;;;1.75;;
49464;SDS011;35358;49.342;8.802;2022-09-23T13:56:02;5.35;;;1.60;;
49464;SDS011;35358;49.342;8.802;2022-09-23T13:58:39;2.40;;;1.58;;
49464;SDS011;35358;49.342;8.802;2022-09-23T14:01:08;6.20;;;1.75;;
49464;SDS011;35358;49.342;8.802;2022-09-23T14:03:57;16.67;;;11.20;;
49464;SDS011;35358;49.342;8.802;2022-09-23T14:06:23;6.10;;;2.70;;
49464;SDS011;35358;49.342;8.802;2022-09-23T14:08:51;3.22;;;1.67;;
49464;SDS011;35358;49.342;8.802;2022-09-23T14:11:18;5.53;;;2.13;;
49464;SDS011;35358;49.342;8.802;2022-09-23T14:13:47;2.35;;;1.33;;
49464;SDS011;35358;49.342;8.802;2022-09-23T14:16:19;4.95;;;1.52;;
49464;SDS011;35358;49.342;8.802;2022-09-23T14:18:49;3.45;;;1.90;;
49464;SDS011;35358;49.342;8.802;2022-09-23T14:21:28;3.13;;;1.65;;
49464;SDS011;35358;49.342;8.802;2022-09-23T14:27:13;4.25;;;1.70;;
49464;SDS011;35358;49.342;8.802;2022-09-23T14:32:12;1.90;;;1.35;;
49464;SDS011;35358;49.342;8.802;2022-09-23T14:34:51;3.40;;;1.67;;
49464;SDS011;35358;49.342;8.802;2022-09-23T14:40:23;1.83;;;1.50;;
49464;SDS011;35358;49.342;8.802;2022-09-23T14:43:11;2.65;;;1.52;;
49464;SDS011;35358;49.342;8.802;2022-09-23T14:48:25;5.28;;;1.85;;
49464;SDS011;35358;49.342;8.802;2022-09-23T14:50:56;2.72;;;1.60;;
49464;SDS011;35358;49.342;8.802;2022-09-23T14:58:38;6.20;;;1.73;;
49464;SDS011;35358;49.342;8.802;2022-09-23T15:01:55;5.18;;;1.63;;
49464;SDS011;35358;49.342;8.802;2022-09-23T15:04:11;2.33;;;1.80;;
49464;SDS011;35358;49.342;8.802;2022-09-23T15:07:06;3.10;;;2.10;;
49464;SDS011;35358;49.342;8.802;2022-09-23T15:09:42;3.17;;;1.60;;
49464;SDS011;35358;49.342;8.802;2022-09-23T15:12:16;3.65;;;2.00;;
49464;SDS011;35358;49.342;8.802;2022-09-23T15:14:51;3.22;;;1.73;;
49464;SDS011;35358;49.342;8.802;2022-09-23T15:17:40;5.95;;;1.98;;
49464;SDS011;35358;49.342;8.802;2022-09-23T15:20:17;3.95;;;1.88;;
49464;SDS011;35358;49.342;8.802;2022-09-23T15:22:51;4.72;;;1.73;;
49464;SDS011;35358;49.342;8.802;2022-09-23T15:30:33;9.07;;;2.15;;
49464;SDS011;35358;49.342;8.802;2022-09-23T15:33:01;5.35;;;2.13;;
49464;SDS011;35358;49.342;8.802;2022-09-23T15:35:29;9.95;;;2.70;;
49464;SDS011;35358;49.342;8.802;2022-09-23T15:37:58;5.88;;;2.08;;
49464;SDS011;35358;49.342;8.802;2022-09-23T15:42:57;3.10;;;2.15;;
49464;SDS011;35358;49.342;8.802;2022-09-23T15:45:26;4.63;;;2.55;;
49464;SDS011;35358;49.342;8.802;2022-09-23T15:47:52;8.23;;;4.03;;
49464;SDS011;35358;49.342;8.802;2022-09-23T15:50:19;3.88;;;2.75;;
49464;SDS011;35358;49.342;8.802;2022-09-23T15:52:50;4.82;;;1.92;;
49464;SDS011;35358;49.342;8.802;2022-09-23T15:55:17;9.25;;;3.58;;
49464;SDS011;35358;49.342;8.802;2022-09-23T15:57:47;5.80;;;2.92;;
49464;SDS011;35358;49.342;8.802;2022-09-23T16:00:13;7.32;;;3.78;;
49464;SDS011;35358;49.342;8.802;2022-09-23T16:02:42;8.90;;;3.20;;
49464;SDS011;35358;49.342;8.802;2022-09-23T16:05:17;7.43;;;3.08;;
49464;SDS011;35358;49.342;8.802;2022-09-23T16:07:50;4.93;;;2.90;;
49464;SDS011;35358;49.342;8.802;2022-09-23T16:10:16;3.60;;;2.40;;
49464;SDS011;35358;49.342;8.802;2022-09-23T16:12:43;8.38;;;2.80;;
49464;SDS011;35358;49.342;8.802;2022-09-23T16:15:12;4.60;;;2.50;;
49464;SDS011;35358;49.342;8.802;2022-09-23T16:17:41;5.15;;;2.10;;
49464;SDS011;35358;49.342;8.802;2022-09-23T16:20:10;5.43;;;2.40;;
49464;SDS011;35358;49.342;8.802;2022-09-23T16:22:41;4.95;;;2.72;;
49464;SDS011;35358;49.342;8.802;2022-09-23T16:25:18;8.77;;;3.08;;
49464;SDS011;35358;49.342;8.802;2022-09-23T16:27:45;5.57;;;3.40;;
49464;SDS011;35358;49.342;8.802;2022-09-23T16:30:11;8.40;;;4.82;;
49464;SDS011;35358;49.342;8.802;2022-09-23T16:32:36;9.32;;;3.38;;
49464;SDS011;35358;49.342;8.802;2022-09-23T16:35:04;7.13;;;2.42;;
49464;SDS011;35358;49.342;8.802;2022-09-23T16:37:32;5.32;;;2.80;;
49464;SDS011;35358;49.342;8.802;2022-09-23T16:39:58;5.22;;;3.17;;
49464;SDS011;35358;49.342;8.802;2022-09-23T16:42:27;6.95;;;4.10;;
49464;SDS011;35358;49.342;8.802;2022-09-23T16:44:58;7.25;;;4.30;;
49464;SDS011;35358;49.342;8.802;2022-09-23T16:47:30;7.30;;;3.13;;
49464;SDS011;35358;49.342;8.802;2022-09-23T16:49:58;5.45;;;3.13;;
49464;SDS011;35358;49.342;8.802;2022-09-23T16:52:26;4.82;;;3.22;;
49464;SDS011;35358;49.342;8.802;2022-09-23T16:54:55;6.30;;;3.50;;
49464;SDS011;35358;49.342;8.802;2022-09-23T16:57:20;10.32;;;3.50;;
49464;SDS011;35358;49.342;8.802;2022-09-23T16:59:46;7.63;;;3.92;;
49464;SDS011;35358;49.342;8.802;2022-09-23T17:02:30;6.03;;;3.30;;
49464;SDS011;35358;49.342;8.802;2022-09-23T17:05:14;6.10;;;4.18;;
49464;SDS011;35358;49.342;8.802;2022-09-23T17:07:41;6.70;;;3.13;;
49464;SDS011;35358;49.342;8.802;2022-09-23T17:10:07;8.95;;;4.25;;
49464;SDS011;35358;49.342;8.802;2022-09-23T17:12:32;4.82;;;3.33;;
49464;SDS011;35358;49.342;8.802;2022-09-23T17:14:59;4.55;;;3.38;;
49464;SDS011;35358;49.342;8.802;2022-09-23T17:17:32;6.00;;;3.50;;
49464;SDS011;35358;49.342;8.802;2022-09-23T17:20:01;9.55;;;3.42;;
49464;SDS011;35358;49.342;8.802;2022-09-23T17:22:28;7.07;;;3.70;;
49464;SDS011;35358;49.342;8.802;2022-09-23T17:24:57;8.98;;;5.10;;
49464;SDS011;35358;49.342;8.802;2022-09-23T17:27:27;12.45;;;5.10;;
49464;SDS011;35358;49.342;8.802;2022-09-23T17:29:54;5.25;;;4.40;;
49464;SDS011;35358;49.342;8.802;2022-09-23T17:32:23;11.05;;;3.45;;
49464;SDS011;35358;49.342;8.802;2022-09-23T17:34:49;7.30;;;3.17;;
49464;SDS011;35358;49.342;8.802;2022-09-23T17:37:14;7.20;;;3.03;;
49464;SDS011;35358;49.342;8.802;2022-09-23T17:39:40;5.97;;;3.58;;
49464;SDS011;35358;49.342;8.802;2022-09-23T17:42:08;6.82;;;3.50;;
49464;SDS011;35358;49.342;8.802;2022-09-23T17:44:34;6.75;;;3.53;;
49464;SDS011;35358;49.342;8.802;2022-09-23T17:47:00;5.38;;;3.40;;
49464;SDS011;35358;49.342;8.802;2022-09-23T17:49:27;4.63;;;4.10;;
49464;SDS011;35358;49.342;8.802;2022-09-23T17:52:02;7.22;;;3.78;;
49464;SDS011;35358;49.342;8.802;2022-09-23T17:54:30;5.55;;;3.80;;
49464;SDS011;35358;49.342;8.802;2022-09-23T17:57:02;5.70;;;3.72;;
49464;SDS011;35358;49.342;8.802;2022-09-23T17:59:27;6.55;;;4.22;;
49464;SDS011;35358;49.342;8.802;2022-09-23T18:01:53;4.65;;;4.00;;
49464;SDS011;35358;49.342;8.802;2022-09-23T18:04:19;7.05;;;4.82;;
49464;SDS011;35358;49.342;8.802;2022-09-23T18:06:45;9.13;;;6.22;;
49464;SDS011;35358;49.342;8.802;2022-09-23T18:09:11;8.80;;;5.22;;
49464;SDS011;35358;49.342;8.802;2022-09-23T18:11:39;9.35;;;4.85;;
49464;SDS011;35358;49.342;8.802;2022-09-23T18:14:15;8.75;;;5.10;;
49464;SDS011;35358;49.342;8.802;2022-09-23T18:16:46;6.40;;;5.40;;
49464;SDS011;35358;49.342;8.802;2022-09-23T18:19:17;5.53;;;4.70;;
49464;SDS011;35358;49.342;8.802;2022-09-23T18:21:45;5.28;;;3.60;;
49464;SDS011;35358;49.342;8.802;2022-09-23T18:24:18;5.97;;;4.20;;